sensor_id;sensor_type;location;lat;lon;timestamp;temperature;humidity
26964;DHT22;14521;48.148;-1.656;2024-02-14T00:02:08;18.60;93.80
26964;DHT22;14521;48.148;-1.656;2024-02-14T00:05:30;18.60;93.70
26964;DHT22;14521;48.148;-1.656;2024-02-14T00:08:53;18.60;93.70
26964;DHT22;14521;48.148;-1.656;2024-02-14T00:12:16;18.60;93.80
26964;DHT22;14521;48.148;-1.656;2024-02-14T00:15:40;18.60;93.80
26964;DHT22;14521;48.148;-1.656;2024-02-14T00:19:02;18.60;93.80
26964;DHT22;14521;48.148;-1.656;2024-02-14T00:22:26;18.60;93.90
26964;DHT22;14521;48.148;-1.656;2024-02-14T00:25:49;18.60;93.90
26964;DHT22;14521;48.148;-1.656;2024-02-14T00:29:11;18.60;93.90
26964;DHT22;14521;48.148;-1.656;2024-02-14T00:32:34;18.60;93.90
26964;DHT22;14521;48.148;-1.656;2024-02-14T00:35:57;18.60;93.90
26964;DHT22;14521;48.148;-1.656;2024-02-14T00:39:19;18.60;93.90
26964;DHT22;14521;48.148;-1.656;2024-02-14T00:42:42;18.60;93.90
26964;DHT22;14521;48.148;-1.656;2024-02-14T00:46:04;18.60;94.00
26964;DHT22;14521;48.148;-1.656;2024-02-14T00:49:28;18.60;94.00
26964;DHT22;14521;48.148;-1.656;2024-02-14T00:52:51;18.60;94.00
26964;DHT22;14521;48.148;-1.656;2024-02-14T00:56:13;18.60;94.00
26964;DHT22;14521;48.148;-1.656;2024-02-14T00:59:36;18.60;94.10
26964;DHT22;14521;48.148;-1.656;2024-02-14T01:02:58;18.60;94.00
26964;DHT22;14521;48.148;-1.656;2024-02-14T01:06:21;18.60;94.00
26964;DHT22;14521;48.148;-1.656;2024-02-14T01:09:43;18.60;94.10
26964;DHT22;14521;48.148;-1.656;2024-02-14T01:13:06;18.60;94.00
26964;DHT22;14521;48.148;-1.656;2024-02-14T01:16:28;18.60;94.10
26964;DHT22;14521;48.148;-1.656;2024-02-14T01:19:51;18.60;94.10
26964;DHT22;14521;48.148;-1.656;2024-02-14T01:23:14;18.50;94.10
26964;DHT22;14521;48.148;-1.656;2024-02-14T01:26:36;18.60;94.10
26964;DHT22;14521;48.148;-1.656;2024-02-14T01:30:00;18.60;94.10
26964;DHT22;14521;48.148;-1.656;2024-02-14T01:33:23;18.50;94.20
26964;DHT22;14521;48.148;-1.656;2024-02-14T01:36:47;18.60;94.30
26964;DHT22;14521;48.148;-1.656;2024-02-14T01:40:10;18.50;94.30
26964;DHT22;14521;48.148;-1.656;2024-02-14T01:43:33;18.60;94.30
26964;DHT22;14521;48.148;-1.656;2024-02-14T01:46:55;18.50;94.40
26964;DHT22;14521;48.148;-1.656;2024-02-14T01:50:17;18.60;94.30
26964;DHT22;14521;48.148;-1.656;2024-02-14T01:53:40;18.50;94.40
26964;DHT22;14521;48.148;-1.656;2024-02-14T01:57:06;18.50;94.40
26964;DHT22;14521;48.148;-1.656;2024-02-14T02:00:30;18.50;94.50
26964;DHT22;14521;48.148;-1.656;2024-02-14T02:03:56;18.50;94.80
26964;DHT22;14521;48.148;-1.656;2024-02-14T02:07:18;18.50;94.50
26964;DHT22;14521;48.148;-1.656;2024-02-14T02:10:42;18.50;94.40
26964;DHT22;14521;48.148;-1.656;2024-02-14T02:14:05;18.50;94.50
26964;DHT22;14521;48.148;-1.656;2024-02-14T02:17:27;18.50;94.60
26964;DHT22;14521;48.148;-1.656;2024-02-14T02:20:52;18.50;94.50
26964;DHT22;14521;48.148;-1.656;2024-02-14T02:24:14;18.50;94.50
26964;DHT22;14521;48.148;-1.656;2024-02-14T02:27:37;18.50;94.60
26964;DHT22;14521;48.148;-1.656;2024-02-14T02:30:59;18.50;94.60
26964;DHT22;14521;48.148;-1.656;2024-02-14T02:34:22;18.50;94.60
26964;DHT22;14521;48.148;-1.656;2024-02-14T02:37:46;18.50;94.60
26964;DHT22;14521;48.148;-1.656;2024-02-14T02:41:11;18.50;94.60
26964;DHT22;14521;48.148;-1.656;2024-02-14T02:44:34;18.50;94.60
26964;DHT22;14521;48.148;-1.656;2024-02-14T02:48:00;18.50;94.60
26964;DHT22;14521;48.148;-1.656;2024-02-14T02:51:24;18.50;94.70
26964;DHT22;14521;48.148;-1.656;2024-02-14T02:54:46;18.50;94.70
26964;DHT22;14521;48.148;-1.656;2024-02-14T02:58:10;18.50;94.80
26964;DHT22;14521;48.148;-1.656;2024-02-14T03:01:36;18.50;94.80
26964;DHT22;14521;48.148;-1.656;2024-02-14T03:04:58;18.50;94.90
26964;DHT22;14521;48.148;-1.656;2024-02-14T03:08:22;18.50;94.90
26964;DHT22;14521;48.148;-1.656;2024-02-14T03:11:48;18.50;94.90
26964;DHT22;14521;48.148;-1.656;2024-02-14T03:15:10;18.50;95.00
26964;DHT22;14521;48.148;-1.656;2024-02-14T03:18:33;18.50;95.00
26964;DHT22;14521;48.148;-1.656;2024-02-14T03:21:57;18.50;95.00
26964;DHT22;14521;48.148;-1.656;2024-02-14T03:25:20;18.50;95.10
26964;DHT22;14521;48.148;-1.656;2024-02-14T03:28:43;18.50;95.00
26964;DHT22;14521;48.148;-1.656;2024-02-14T03:32:06;18.50;95.10
26964;DHT22;14521;48.148;-1.656;2024-02-14T03:35:30;18.50;95.10
26964;DHT22;14521;48.148;-1.656;2024-02-14T03:38:53;18.50;95.10
26964;DHT22;14521;48.148;-1.656;2024-02-14T03:42:16;18.50;95.10
26964;DHT22;14521;48.148;-1.656;2024-02-14T03:45:38;18.50;95.10
26964;DHT22;14521;48.148;-1.656;2024-02-14T03:49:01;18.50;95.00
26964;DHT22;14521;48.148;-1.656;2024-02-14T03:52:24;18.50;95.10
26964;DHT22;14521;48.148;-1.656;2024-02-14T03:55:47;18.50;95.10
26964;DHT22;14521;48.148;-1.656;2024-02-14T03:59:11;18.50;95.10
26964;DHT22;14521;48.148;-1.656;2024-02-14T04:02:33;18.50;95.10
26964;DHT22;14521;48.148;-1.656;2024-02-14T04:05:58;18.40;95.10
26964;DHT22;14521;48.148;-1.656;2024-02-14T04:09:20;18.50;95.10
26964;DHT22;14521;48.148;-1.656;2024-02-14T04:12:44;18.50;95.10
26964;DHT22;14521;48.148;-1.656;2024-02-14T04:16:06;18.50;95.10
26964;DHT22;14521;48.148;-1.656;2024-02-14T04:19:29;18.50;95.00
26964;DHT22;14521;48.148;-1.656;2024-02-14T04:22:51;18.40;95.10
26964;DHT22;14521;48.148;-1.656;2024-02-14T04:26:21;18.50;95.10
26964;DHT22;14521;48.148;-1.656;2024-02-14T04:29:47;18.50;95.20
26964;DHT22;14521;48.148;-1.656;2024-02-14T04:33:10;18.50;95.30
26964;DHT22;14521;48.148;-1.656;2024-02-14T04:36:36;18.50;95.30
26964;DHT22;14521;48.148;-1.656;2024-02-14T04:39:59;18.50;95.30
26964;DHT22;14521;48.148;-1.656;2024-02-14T04:43:22;18.40;95.30
26964;DHT22;14521;48.148;-1.656;2024-02-14T04:46:44;18.50;95.30
26964;DHT22;14521;48.148;-1.656;2024-02-14T04:50:08;18.50;95.30
26964;DHT22;14521;48.148;-1.656;2024-02-14T04:53:31;18.50;95.30
26964;DHT22;14521;48.148;-1.656;2024-02-14T04:56:54;18.50;95.30
26964;DHT22;14521;48.148;-1.656;2024-02-14T05:00:21;18.40;95.30
26964;DHT22;14521;48.148;-1.656;2024-02-14T05:03:44;18.40;95.30
26964;DHT22;14521;48.148;-1.656;2024-02-14T05:07:08;18.40;95.40
26964;DHT22;14521;48.148;-1.656;2024-02-14T05:10:31;18.50;95.40
26964;DHT22;14521;48.148;-1.656;2024-02-14T05:13:54;18.40;95.40
26964;DHT22;14521;48.148;-1.656;2024-02-14T05:17:16;18.40;95.50
26964;DHT22;14521;48.148;-1.656;2024-02-14T05:20:40;18.50;95.70
26964;DHT22;14521;48.148;-1.656;2024-02-14T05:24:02;18.50;95.60
26964;DHT22;14521;48.148;-1.656;2024-02-14T05:27:25;18.50;95.60
26964;DHT22;14521;48.148;-1.656;2024-02-14T05:30:48;18.50;96.00
26964;DHT22;14521;48.148;-1.656;2024-02-14T05:34:11;18.60;95.70
26964;DHT22;14521;48.148;-1.656;2024-02-14T05:37:33;18.60;95.70
26964;DHT22;14521;48.148;-1.656;2024-02-14T05:41:00;18.60;95.70
26964;DHT22;14521;48.148;-1.656;2024-02-14T05:44:23;18.70;95.70
26964;DHT22;14521;48.148;-1.656;2024-02-14T05:47:45;18.70;95.60
26964;DHT22;14521;48.148;-1.656;2024-02-14T05:51:08;18.70;95.60
26964;DHT22;14521;48.148;-1.656;2024-02-14T05:54:30;18.70;95.50
26964;DHT22;14521;48.148;-1.656;2024-02-14T05:57:53;18.70;95.90
26964;DHT22;14521;48.148;-1.656;2024-02-14T06:01:16;18.80;95.40
26964;DHT22;14521;48.148;-1.656;2024-02-14T06:04:38;18.80;95.30
26964;DHT22;14521;48.148;-1.656;2024-02-14T06:08:01;18.90;93.80
26964;DHT22;14521;48.148;-1.656;2024-02-14T06:11:25;18.70;93.10
26964;DHT22;14521;48.148;-1.656;2024-02-14T06:14:49;18.60;94.90
26964;DHT22;14521;48.148;-1.656;2024-02-14T06:18:12;18.80;95.30
26964;DHT22;14521;48.148;-1.656;2024-02-14T06:21:34;19.00;95.20
26964;DHT22;14521;48.148;-1.656;2024-02-14T06:24:57;19.10;95.30
26964;DHT22;14521;48.148;-1.656;2024-02-14T06:28:20;19.10;96.20
26964;DHT22;14521;48.148;-1.656;2024-02-14T06:31:42;19.10;96.10
26964;DHT22;14521;48.148;-1.656;2024-02-14T06:35:05;19.10;95.90
26964;DHT22;14521;48.148;-1.656;2024-02-14T06:38:28;19.20;95.80
26964;DHT22;14521;48.148;-1.656;2024-02-14T06:41:52;19.20;95.80
26964;DHT22;14521;48.148;-1.656;2024-02-14T06:45:14;19.20;95.70
26964;DHT22;14521;48.148;-1.656;2024-02-14T06:48:36;19.20;95.70
26964;DHT22;14521;48.148;-1.656;2024-02-14T06:51:59;19.20;95.80
26964;DHT22;14521;48.148;-1.656;2024-02-14T06:55:21;19.20;96.00
26964;DHT22;14521;48.148;-1.656;2024-02-14T06:58:43;19.20;96.20
26964;DHT22;14521;48.148;-1.656;2024-02-14T07:02:06;19.30;96.10
26964;DHT22;14521;48.148;-1.656;2024-02-14T07:05:35;19.30;96.30
26964;DHT22;14521;48.148;-1.656;2024-02-14T07:08:57;19.30;94.50
26964;DHT22;14521;48.148;-1.656;2024-02-14T07:12:20;19.10;94.10
26964;DHT22;14521;48.148;-1.656;2024-02-14T07:15:42;19.10;93.60
26964;DHT22;14521;48.148;-1.656;2024-02-14T07:19:05;19.00;93.90
26964;DHT22;14521;48.148;-1.656;2024-02-14T07:22:27;19.00;94.10
26964;DHT22;14521;48.148;-1.656;2024-02-14T07:25:50;18.90;94.40
26964;DHT22;14521;48.148;-1.656;2024-02-14T07:29:13;18.90;94.40
26964;DHT22;14521;48.148;-1.656;2024-02-14T07:32:37;18.90;94.40
26964;DHT22;14521;48.148;-1.656;2024-02-14T07:35:59;18.90;94.50
26964;DHT22;14521;48.148;-1.656;2024-02-14T07:39:22;18.90;94.90
26964;DHT22;14521;48.148;-1.656;2024-02-14T07:42:44;18.90;94.50
26964;DHT22;14521;48.148;-1.656;2024-02-14T07:46:07;18.90;94.70
26964;DHT22;14521;48.148;-1.656;2024-02-14T07:49:29;18.90;94.60
26964;DHT22;14521;48.148;-1.656;2024-02-14T07:52:51;18.90;94.80
26964;DHT22;14521;48.148;-1.656;2024-02-14T07:56:14;18.90;94.90
26964;DHT22;14521;48.148;-1.656;2024-02-14T07:59:36;18.90;94.60
26964;DHT22;14521;48.148;-1.656;2024-02-14T08:03:00;18.90;94.60
26964;DHT22;14521;48.148;-1.656;2024-02-14T08:06:26;18.90;94.70
26964;DHT22;14521;48.148;-1.656;2024-02-14T08:09:48;18.90;94.50
26964;DHT22;14521;48.148;-1.656;2024-02-14T08:13:10;18.90;94.60
26964;DHT22;14521;48.148;-1.656;2024-02-14T08:16:37;18.90;94.50
26964;DHT22;14521;48.148;-1.656;2024-02-14T08:19:59;18.90;94.50
26964;DHT22;14521;48.148;-1.656;2024-02-14T08:23:22;18.80;95.10
26964;DHT22;14521;48.148;-1.656;2024-02-14T08:26:45;18.80;94.90
26964;DHT22;14521;48.148;-1.656;2024-02-14T08:30:07;18.80;94.80
26964;DHT22;14521;48.148;-1.656;2024-02-14T08:33:31;18.80;95.20
26964;DHT22;14521;48.148;-1.656;2024-02-14T08:36:54;18.80;95.30
26964;DHT22;14521;48.148;-1.656;2024-02-14T08:40:18;18.80;95.40
26964;DHT22;14521;48.148;-1.656;2024-02-14T08:43:40;18.80;95.50
26964;DHT22;14521;48.148;-1.656;2024-02-14T08:47:07;18.80;95.60
26964;DHT22;14521;48.148;-1.656;2024-02-14T08:50:29;18.90;95.80
26964;DHT22;14521;48.148;-1.656;2024-02-14T08:53:52;18.90;95.60
26964;DHT22;14521;48.148;-1.656;2024-02-14T08:57:17;19.00;95.40
26964;DHT22;14521;48.148;-1.656;2024-02-14T09:00:41;19.00;95.40
26964;DHT22;14521;48.148;-1.656;2024-02-14T09:04:03;18.90;95.60
26964;DHT22;14521;48.148;-1.656;2024-02-14T09:07:26;18.90;95.50
26964;DHT22;14521;48.148;-1.656;2024-02-14T09:10:48;18.90;95.90
26964;DHT22;14521;48.148;-1.656;2024-02-14T09:14:12;18.90;95.60
26964;DHT22;14521;48.148;-1.656;2024-02-14T09:17:35;18.90;95.80
26964;DHT22;14521;48.148;-1.656;2024-02-14T09:20:57;18.90;96.20
26964;DHT22;14521;48.148;-1.656;2024-02-14T09:24:20;18.90;96.10
26964;DHT22;14521;48.148;-1.656;2024-02-14T09:27:42;18.80;96.70
26964;DHT22;14521;48.148;-1.656;2024-02-14T09:31:06;18.90;96.60
26964;DHT22;14521;48.148;-1.656;2024-02-14T09:34:28;18.90;96.20
26964;DHT22;14521;48.148;-1.656;2024-02-14T09:37:51;18.90;96.50
26964;DHT22;14521;48.148;-1.656;2024-02-14T09:41:35;18.90;96.40
26964;DHT22;14521;48.148;-1.656;2024-02-14T09:44:59;18.90;96.40
26964;DHT22;14521;48.148;-1.656;2024-02-14T09:48:22;18.90;96.40
26964;DHT22;14521;48.148;-1.656;2024-02-14T09:51:46;18.90;96.00
26964;DHT22;14521;48.148;-1.656;2024-02-14T09:55:11;18.90;96.20
26964;DHT22;14521;48.148;-1.656;2024-02-14T09:58:34;18.90;96.20
26964;DHT22;14521;48.148;-1.656;2024-02-14T10:01:57;18.90;96.10
26964;DHT22;14521;48.148;-1.656;2024-02-14T10:05:19;18.90;96.00
26964;DHT22;14521;48.148;-1.656;2024-02-14T10:08:42;19.00;96.30
26964;DHT22;14521;48.148;-1.656;2024-02-14T10:12:20;19.00;95.10
26964;DHT22;14521;48.148;-1.656;2024-02-14T10:15:42;18.90;95.70
26964;DHT22;14521;48.148;-1.656;2024-02-14T10:19:14;19.00;96.00
26964;DHT22;14521;48.148;-1.656;2024-02-14T10:22:38;19.00;96.00
26964;DHT22;14521;48.148;-1.656;2024-02-14T10:26:01;19.00;96.00
26964;DHT22;14521;48.148;-1.656;2024-02-14T10:29:24;19.00;95.70
26964;DHT22;14521;48.148;-1.656;2024-02-14T10:32:46;19.00;95.80
26964;DHT22;14521;48.148;-1.656;2024-02-14T10:36:12;19.00;95.90
26964;DHT22;14521;48.148;-1.656;2024-02-14T10:39:35;19.00;96.10
26964;DHT22;14521;48.148;-1.656;2024-02-14T10:42:59;19.00;95.90
26964;DHT22;14521;48.148;-1.656;2024-02-14T10:46:23;19.00;95.90
26964;DHT22;14521;48.148;-1.656;2024-02-14T10:49:48;19.00;96.40
26964;DHT22;14521;48.148;-1.656;2024-02-14T10:53:14;19.00;96.10
26964;DHT22;14521;48.148;-1.656;2024-02-14T10:56:41;19.00;95.90
26964;DHT22;14521;48.148;-1.656;2024-02-14T11:00:10;18.90;96.00
26964;DHT22;14521;48.148;-1.656;2024-02-14T11:03:35;18.90;96.00
26964;DHT22;14521;48.148;-1.656;2024-02-14T11:06:58;19.00;96.10
26964;DHT22;14521;48.148;-1.656;2024-02-14T11:10:24;19.00;96.00
26964;DHT22;14521;48.148;-1.656;2024-02-14T11:13:53;19.00;95.80
26964;DHT22;14521;48.148;-1.656;2024-02-14T11:17:19;18.90;95.40
26964;DHT22;14521;48.148;-1.656;2024-02-14T11:20:48;18.90;95.70
26964;DHT22;14521;48.148;-1.656;2024-02-14T11:24:13;18.80;95.20
26964;DHT22;14521;48.148;-1.656;2024-02-14T11:27:46;18.70;95.40
26964;DHT22;14521;48.148;-1.656;2024-02-14T11:31:08;18.70;95.50
26964;DHT22;14521;48.148;-1.656;2024-02-14T11:34:33;18.70;95.50
26964;DHT22;14521;48.148;-1.656;2024-02-14T11:37:59;18.70;95.40
26964;DHT22;14521;48.148;-1.656;2024-02-14T11:41:22;18.70;95.50
26964;DHT22;14521;48.148;-1.656;2024-02-14T11:44:46;18.60;95.50
26964;DHT22;14521;48.148;-1.656;2024-02-14T11:48:12;18.60;95.50
26964;DHT22;14521;48.148;-1.656;2024-02-14T11:51:35;18.60;95.60
26964;DHT22;14521;48.148;-1.656;2024-02-14T11:54:58;18.60;95.50
26964;DHT22;14521;48.148;-1.656;2024-02-14T11:58:22;18.60;95.50
26964;DHT22;14521;48.148;-1.656;2024-02-14T12:01:45;18.60;95.50
26964;DHT22;14521;48.148;-1.656;2024-02-14T12:05:08;18.60;95.50
26964;DHT22;14521;48.148;-1.656;2024-02-14T12:08:31;18.60;95.50
26964;DHT22;14521;48.148;-1.656;2024-02-14T12:11:55;18.60;95.50
26964;DHT22;14521;48.148;-1.656;2024-02-14T12:15:17;18.60;95.40
26964;DHT22;14521;48.148;-1.656;2024-02-14T12:18:39;18.60;95.40
26964;DHT22;14521;48.148;-1.656;2024-02-14T12:22:02;18.60;95.80
26964;DHT22;14521;48.148;-1.656;2024-02-14T12:25:25;18.60;95.40
26964;DHT22;14521;48.148;-1.656;2024-02-14T12:28:48;18.60;95.40
26964;DHT22;14521;48.148;-1.656;2024-02-14T12:32:16;18.60;95.50
26964;DHT22;14521;48.148;-1.656;2024-02-14T12:35:42;18.60;95.40
26964;DHT22;14521;48.148;-1.656;2024-02-14T12:39:06;18.60;95.40
26964;DHT22;14521;48.148;-1.656;2024-02-14T12:42:29;18.70;95.70
26964;DHT22;14521;48.148;-1.656;2024-02-14T12:45:58;18.70;95.70
26964;DHT22;14521;48.148;-1.656;2024-02-14T12:49:20;18.70;95.60
26964;DHT22;14521;48.148;-1.656;2024-02-14T12:52:43;18.70;95.40
26964;DHT22;14521;48.148;-1.656;2024-02-14T12:56:06;18.80;95.50
26964;DHT22;14521;48.148;-1.656;2024-02-14T12:59:28;18.80;96.10
26964;DHT22;14521;48.148;-1.656;2024-02-14T13:02:52;18.90;96.00
26964;DHT22;14521;48.148;-1.656;2024-02-14T13:06:16;19.00;95.70
26964;DHT22;14521;48.148;-1.656;2024-02-14T13:09:38;19.00;95.60
26964;DHT22;14521;48.148;-1.656;2024-02-14T13:13:02;19.00;95.40
26964;DHT22;14521;48.148;-1.656;2024-02-14T13:16:24;19.00;95.70
26964;DHT22;14521;48.148;-1.656;2024-02-14T13:19:46;19.00;95.60
26964;DHT22;14521;48.148;-1.656;2024-02-14T13:23:11;19.00;95.70
26964;DHT22;14521;48.148;-1.656;2024-02-14T13:26:33;19.00;95.80
26964;DHT22;14521;48.148;-1.656;2024-02-14T13:29:57;19.00;95.60
26964;DHT22;14521;48.148;-1.656;2024-02-14T13:33:19;19.00;95.70
26964;DHT22;14521;48.148;-1.656;2024-02-14T13:36:42;19.10;95.80
26964;DHT22;14521;48.148;-1.656;2024-02-14T13:40:05;19.00;95.70
26964;DHT22;14521;48.148;-1.656;2024-02-14T13:43:32;19.10;95.80
26964;DHT22;14521;48.148;-1.656;2024-02-14T13:46:54;19.00;96.00
26964;DHT22;14521;48.148;-1.656;2024-02-14T13:50:16;19.00;95.80
26964;DHT22;14521;48.148;-1.656;2024-02-14T13:53:39;19.00;95.90
26964;DHT22;14521;48.148;-1.656;2024-02-14T13:57:01;19.00;96.00
26964;DHT22;14521;48.148;-1.656;2024-02-14T14:00:25;19.00;95.80
26964;DHT22;14521;48.148;-1.656;2024-02-14T14:03:48;19.00;96.10
26964;DHT22;14521;48.148;-1.656;2024-02-14T14:07:12;19.00;96.40
26964;DHT22;14521;48.148;-1.656;2024-02-14T14:10:35;19.00;96.40
26964;DHT22;14521;48.148;-1.656;2024-02-14T14:13:57;19.00;96.40
26964;DHT22;14521;48.148;-1.656;2024-02-14T14:17:20;19.00;96.30
26964;DHT22;14521;48.148;-1.656;2024-02-14T14:20:42;19.00;96.30
26964;DHT22;14521;48.148;-1.656;2024-02-14T14:24:04;19.00;96.30
26964;DHT22;14521;48.148;-1.656;2024-02-14T14:27:27;19.00;96.30
26964;DHT22;14521;48.148;-1.656;2024-02-14T14:30:49;19.00;96.30
26964;DHT22;14521;48.148;-1.656;2024-02-14T14:34:13;19.00;96.40
26964;DHT22;14521;48.148;-1.656;2024-02-14T14:37:36;19.00;96.40
26964;DHT22;14521;48.148;-1.656;2024-02-14T14:40:59;19.00;96.40
26964;DHT22;14521;48.148;-1.656;2024-02-14T14:44:22;19.00;96.50
26964;DHT22;14521;48.148;-1.656;2024-02-14T14:47:45;19.00;96.40
26964;DHT22;14521;48.148;-1.656;2024-02-14T14:51:07;19.00;95.60
26964;DHT22;14521;48.148;-1.656;2024-02-14T14:54:30;18.90;95.60
26964;DHT22;14521;48.148;-1.656;2024-02-14T14:57:53;18.90;96.40
26964;DHT22;14521;48.148;-1.656;2024-02-14T15:01:18;19.00;96.80
26964;DHT22;14521;48.148;-1.656;2024-02-14T15:04:41;19.00;97.00
26964;DHT22;14521;48.148;-1.656;2024-02-14T15:08:07;19.00;96.70
26964;DHT22;14521;48.148;-1.656;2024-02-14T15:11:29;19.00;97.00
26964;DHT22;14521;48.148;-1.656;2024-02-14T15:14:53;19.00;97.00
26964;DHT22;14521;48.148;-1.656;2024-02-14T15:18:15;19.00;96.80
26964;DHT22;14521;48.148;-1.656;2024-02-14T15:21:38;19.00;96.50
26964;DHT22;14521;48.148;-1.656;2024-02-14T15:25:01;19.00;96.30
26964;DHT22;14521;48.148;-1.656;2024-02-14T15:28:24;19.00;96.80
26964;DHT22;14521;48.148;-1.656;2024-02-14T15:31:48;19.00;97.10
26964;DHT22;14521;48.148;-1.656;2024-02-14T15:35:29;19.00;97.30
26964;DHT22;14521;48.148;-1.656;2024-02-14T15:38:52;19.00;97.20
26964;DHT22;14521;48.148;-1.656;2024-02-14T15:42:14;19.00;97.50
26964;DHT22;14521;48.148;-1.656;2024-02-14T15:45:37;19.00;97.30
26964;DHT22;14521;48.148;-1.656;2024-02-14T15:49:00;19.00;97.20
26964;DHT22;14521;48.148;-1.656;2024-02-14T15:52:23;19.00;96.90
26964;DHT22;14521;48.148;-1.656;2024-02-14T15:55:46;19.00;97.00
26964;DHT22;14521;48.148;-1.656;2024-02-14T15:59:08;19.00;97.30
26964;DHT22;14521;48.148;-1.656;2024-02-14T16:02:31;19.00;97.50
26964;DHT22;14521;48.148;-1.656;2024-02-14T16:05:53;19.00;97.00
26964;DHT22;14521;48.148;-1.656;2024-02-14T16:09:16;19.00;97.10
26964;DHT22;14521;48.148;-1.656;2024-02-14T16:12:42;19.00;97.00
26964;DHT22;14521;48.148;-1.656;2024-02-14T16:16:06;19.00;96.30
26964;DHT22;14521;48.148;-1.656;2024-02-14T16:19:30;19.00;96.40
26964;DHT22;14521;48.148;-1.656;2024-02-14T16:22:53;19.00;96.30
26964;DHT22;14521;48.148;-1.656;2024-02-14T16:26:16;19.00;96.60
26964;DHT22;14521;48.148;-1.656;2024-02-14T16:29:38;19.00;96.90
26964;DHT22;14521;48.148;-1.656;2024-02-14T16:33:01;19.00;97.00
26964;DHT22;14521;48.148;-1.656;2024-02-14T16:36:23;19.00;97.20
26964;DHT22;14521;48.148;-1.656;2024-02-14T16:39:46;19.00;96.80
26964;DHT22;14521;48.148;-1.656;2024-02-14T16:43:10;19.00;96.90
26964;DHT22;14521;48.148;-1.656;2024-02-14T16:46:32;19.00;96.70
26964;DHT22;14521;48.148;-1.656;2024-02-14T16:49:55;19.00;96.80
26964;DHT22;14521;48.148;-1.656;2024-02-14T16:57:12;18.90;96.30
26964;DHT22;14521;48.148;-1.656;2024-02-14T17:00:40;18.90;96.80
26964;DHT22;14521;48.148;-1.656;2024-02-14T17:04:02;18.90;96.70
26964;DHT22;14521;48.148;-1.656;2024-02-14T17:07:27;19.00;96.90
26964;DHT22;14521;48.148;-1.656;2024-02-14T17:10:50;18.90;96.80
26964;DHT22;14521;48.148;-1.656;2024-02-14T17:14:12;19.00;96.80
26964;DHT22;14521;48.148;-1.656;2024-02-14T17:17:34;19.00;96.80
26964;DHT22;14521;48.148;-1.656;2024-02-14T17:20:57;18.90;96.80
26964;DHT22;14521;48.148;-1.656;2024-02-14T17:24:20;18.90;96.10
26964;DHT22;14521;48.148;-1.656;2024-02-14T17:27:42;19.00;96.10
26964;DHT22;14521;48.148;-1.656;2024-02-14T17:31:04;18.90;96.00
26964;DHT22;14521;48.148;-1.656;2024-02-14T17:34:27;18.90;95.80
26964;DHT22;14521;48.148;-1.656;2024-02-14T17:37:52;18.90;95.90
26964;DHT22;14521;48.148;-1.656;2024-02-14T17:41:15;18.80;95.80
26964;DHT22;14521;48.148;-1.656;2024-02-14T17:44:39;18.80;95.90
26964;DHT22;14521;48.148;-1.656;2024-02-14T17:48:01;18.80;95.80
26964;DHT22;14521;48.148;-1.656;2024-02-14T17:51:26;18.70;95.80
26964;DHT22;14521;48.148;-1.656;2024-02-14T17:54:49;18.70;95.70
26964;DHT22;14521;48.148;-1.656;2024-02-14T17:58:13;18.80;95.80
26964;DHT22;14521;48.148;-1.656;2024-02-14T18:01:35;18.70;96.10
26964;DHT22;14521;48.148;-1.656;2024-02-14T18:04:58;18.70;95.70
26964;DHT22;14521;48.148;-1.656;2024-02-14T18:08:21;18.80;95.60
26964;DHT22;14521;48.148;-1.656;2024-02-14T18:11:43;18.70;95.60
26964;DHT22;14521;48.148;-1.656;2024-02-14T18:15:07;18.80;95.60
26964;DHT22;14521;48.148;-1.656;2024-02-14T18:18:31;18.70;95.50
26964;DHT22;14521;48.148;-1.656;2024-02-14T18:21:56;18.70;95.60
26964;DHT22;14521;48.148;-1.656;2024-02-14T18:25:18;18.70;95.80
26964;DHT22;14521;48.148;-1.656;2024-02-14T18:28:41;18.80;95.70
26964;DHT22;14521;48.148;-1.656;2024-02-14T18:32:03;18.90;96.00
26964;DHT22;14521;48.148;-1.656;2024-02-14T18:35:29;18.90;96.00
26964;DHT22;14521;48.148;-1.656;2024-02-14T18:38:51;19.00;97.40
26964;DHT22;14521;48.148;-1.656;2024-02-14T18:42:18;19.00;98.20
26964;DHT22;14521;48.148;-1.656;2024-02-14T18:45:41;19.10;98.00
26964;DHT22;14521;48.148;-1.656;2024-02-14T18:49:04;19.10;99.80
26964;DHT22;14521;48.148;-1.656;2024-02-14T18:52:27;19.10;99.90
26964;DHT22;14521;48.148;-1.656;2024-02-14T18:55:50;19.20;99.90
26964;DHT22;14521;48.148;-1.656;2024-02-14T18:59:12;19.20;99.90
26964;DHT22;14521;48.148;-1.656;2024-02-14T19:02:37;19.20;99.90
26964;DHT22;14521;48.148;-1.656;2024-02-14T19:06:00;19.20;99.90
26964;DHT22;14521;48.148;-1.656;2024-02-14T19:09:22;19.30;99.90
26964;DHT22;14521;48.148;-1.656;2024-02-14T19:12:45;19.20;99.90
26964;DHT22;14521;48.148;-1.656;2024-02-14T19:16:07;19.30;99.90
26964;DHT22;14521;48.148;-1.656;2024-02-14T19:19:44;19.30;99.90
26964;DHT22;14521;48.148;-1.656;2024-02-14T19:22:48;19.30;99.90
26964;DHT22;14521;48.148;-1.656;2024-02-14T19:26:11;19.30;99.90
26964;DHT22;14521;48.148;-1.656;2024-02-14T19:29:30;19.30;99.30
26964;DHT22;14521;48.148;-1.656;2024-02-14T19:32:53;19.20;97.10
26964;DHT22;14521;48.148;-1.656;2024-02-14T19:36:15;19.20;96.90
26964;DHT22;14521;48.148;-1.656;2024-02-14T19:39:39;19.20;97.30
26964;DHT22;14521;48.148;-1.656;2024-02-14T19:43:01;19.20;97.20
26964;DHT22;14521;48.148;-1.656;2024-02-14T19:46:24;19.20;97.40
26964;DHT22;14521;48.148;-1.656;2024-02-14T19:49:47;19.20;97.10
26964;DHT22;14521;48.148;-1.656;2024-02-14T19:53:10;19.10;97.70
26964;DHT22;14521;48.148;-1.656;2024-02-14T19:56:33;19.10;97.30
26964;DHT22;14521;48.148;-1.656;2024-02-14T19:59:55;19.10;97.20
26964;DHT22;14521;48.148;-1.656;2024-02-14T20:03:18;19.10;97.40
26964;DHT22;14521;48.148;-1.656;2024-02-14T20:06:41;19.10;97.40
26964;DHT22;14521;48.148;-1.656;2024-02-14T20:10:03;19.10;97.40
26964;DHT22;14521;48.148;-1.656;2024-02-14T20:13:27;19.10;97.60
26964;DHT22;14521;48.148;-1.656;2024-02-14T20:16:50;19.10;97.20
26964;DHT22;14521;48.148;-1.656;2024-02-14T20:20:13;19.20;98.30
26964;DHT22;14521;48.148;-1.656;2024-02-14T20:23:33;19.10;97.90
26964;DHT22;14521;48.148;-1.656;2024-02-14T20:26:35;19.10;98.10
26964;DHT22;14521;48.148;-1.656;2024-02-14T20:29:40;19.10;97.90
26964;DHT22;14521;48.148;-1.656;2024-02-14T20:32:45;19.00;97.80
26964;DHT22;14521;48.148;-1.656;2024-02-14T20:35:47;19.00;97.90
26964;DHT22;14521;48.148;-1.656;2024-02-14T20:38:51;19.00;97.80
26964;DHT22;14521;48.148;-1.656;2024-02-14T20:41:57;19.00;97.80
26964;DHT22;14521;48.148;-1.656;2024-02-14T20:44:59;19.00;97.70
26964;DHT22;14521;48.148;-1.656;2024-02-14T20:48:02;18.90;97.60
26964;DHT22;14521;48.148;-1.656;2024-02-14T20:51:05;19.00;97.70
26964;DHT22;14521;48.148;-1.656;2024-02-14T20:54:08;19.00;98.20
26964;DHT22;14521;48.148;-1.656;2024-02-14T20:57:10;19.00;98.60
26964;DHT22;14521;48.148;-1.656;2024-02-14T21:00:12;19.00;98.50
26964;DHT22;14521;48.148;-1.656;2024-02-14T21:03:18;19.10;98.50